createdAt,value
2022-09-24T00:00:53.273Z,13.20
2022-09-24T00:03:21.265Z,14.93
2022-09-24T00:05:50.617Z,14.67
2022-09-24T00:08:19.149Z,14.10
2022-09-24T00:10:48.815Z,15.50
2022-09-24T00:13:18.082Z,9.50
2022-09-24T00:15:47.264Z,15.93
2022-09-24T00:18:16.138Z,10.30
2022-09-24T00:20:43.842Z,13.33
2022-09-24T00:23:13.195Z,12.63
2022-09-24T00:26:01.678Z,13.63
2022-09-24T00:28:29.658Z,14.20
2022-09-24T00:30:59.040Z,11.20
2022-09-24T00:33:28.111Z,10.97
2022-09-24T00:36:00.384Z,12.97
2022-09-24T00:38:29.237Z,13.60
2022-09-24T00:40:56.765Z,9.47
2022-09-24T00:43:26.064Z,12.10
2022-09-24T00:45:56.471Z,10.53
2022-09-24T00:48:24.564Z,11.17
2022-09-24T00:50:52.125Z,13.63
2022-09-24T00:53:22.614Z,11.10
2022-09-24T00:55:54.550Z,15.50
2022-09-24T00:58:23.435Z,13.60
2022-09-24T01:00:53.430Z,9.07
2022-09-24T01:03:23.915Z,12.60
2022-09-24T01:05:52.214Z,10.20
2022-09-24T01:08:20.929Z,9.47
2022-09-24T01:10:59.261Z,12.37
2022-09-24T01:13:41.203Z,14.33
2022-09-24T01:16:14.941Z,14.13
2022-09-24T01:18:47.341Z,13.30
2022-09-24T01:21:28.998Z,11.67
2022-09-24T01:24:02.561Z,12.57
2022-09-24T01:26:51.145Z,12.07
2022-09-24T01:29:31.263Z,10.93
2022-09-24T01:32:05.749Z,8.83
2022-09-24T01:34:38.598Z,8.80
2022-09-24T01:37:07.660Z,12.53
2022-09-24T01:39:37.145Z,11.53
2022-09-24T01:42:05.323Z,13.53
2022-09-24T01:44:35.265Z,15.23
2022-09-24T01:47:06.245Z,10.10
2022-09-24T01:49:33.814Z,13.27
2022-09-24T01:52:04.734Z,12.00
2022-09-24T01:54:35.522Z,11.07
2022-09-24T01:57:06.967Z,11.87
2022-09-24T01:59:39.978Z,10.90
2022-09-24T02:02:11.162Z,10.83
2022-09-24T02:04:41.849Z,8.47
2022-09-24T02:07:13.431Z,11.57
2022-09-24T02:09:42.676Z,16.70
2022-09-24T02:12:12.544Z,8.20
2022-09-24T02:14:44.382Z,12.17
2022-09-24T02:17:12.533Z,14.10
2022-09-24T02:19:40.893Z,9.20
2022-09-24T02:22:09.401Z,8.80
2022-09-24T02:24:44.181Z,10.13
2022-09-24T02:27:11.901Z,7.57
2022-09-24T02:29:40.866Z,10.60
2022-09-24T02:32:10.483Z,16.13
2022-09-24T02:34:40.214Z,7.73
2022-09-24T02:37:10.174Z,11.03
2022-09-24T02:39:37.771Z,12.57
2022-09-24T02:42:06.419Z,13.63
2022-09-24T02:44:34.028Z,14.93
2022-09-24T02:47:03.274Z,8.63
2022-09-24T02:49:30.756Z,12.33
2022-09-24T02:51:58.281Z,12.80
2022-09-24T02:54:26.246Z,12.60
2022-09-24T02:56:54.345Z,12.97
2022-09-24T02:59:21.813Z,12.43
2022-09-24T03:01:49.987Z,10.77
2022-09-24T03:04:19.739Z,9.97
2022-09-24T03:06:47.315Z,10.87
2022-09-24T03:09:15.079Z,12.37
2022-09-24T03:11:43.056Z,11.10
2022-09-24T03:14:10.524Z,10.37
2022-09-24T03:16:38.075Z,9.70
2022-09-24T03:19:05.630Z,7.77
2022-09-24T03:21:34.501Z,13.00
2022-09-24T03:24:03.708Z,8.03
2022-09-24T03:26:31.786Z,9.03
2022-09-24T03:28:59.301Z,11.83
2022-09-24T03:31:25.856Z,11.23
2022-09-24T03:33:53.457Z,9.93
2022-09-24T03:36:22.617Z,12.70
2022-09-24T03:38:54.227Z,11.40
2022-09-24T03:41:21.770Z,9.23
2022-09-24T03:43:49.241Z,11.43
2022-09-24T03:46:17.218Z,12.73
2022-09-24T03:48:47.012Z,11.40
2022-09-24T03:51:15.783Z,12.00
2022-09-24T03:53:43.633Z,15.73
2022-09-24T03:56:12.897Z,11.87
2022-09-24T03:58:41.345Z,9.97
2022-09-24T04:01:10.402Z,7.60
2022-09-24T04:03:38.140Z,14.30
2022-09-24T04:06:06.544Z,10.20
2022-09-24T04:08:34.306Z,10.57
2022-09-24T04:11:01.799Z,8.70
2022-09-24T04:13:30.933Z,11.50
2022-09-24T04:16:03.067Z,11.77
2022-09-24T04:18:30.617Z,13.23
2022-09-24T04:21:00.111Z,10.67
2022-09-24T04:23:27.689Z,11.63
2022-09-24T04:25:55.243Z,12.60
2022-09-24T04:28:22.788Z,13.20
2022-09-24T04:30:51.652Z,15.60
2022-09-24T04:33:19.290Z,14.30
2022-09-24T04:35:47.295Z,8.90
2022-09-24T04:38:15.000Z,13.07
2022-09-24T04:40:42.510Z,9.30
2022-09-24T04:43:10.040Z,12.40
2022-09-24T04:45:38.298Z,13.10
2022-09-24T04:48:07.319Z,11.03
2022-09-24T04:50:34.964Z,12.63
2022-09-24T04:53:02.986Z,12.87
2022-09-24T04:55:32.024Z,8.63
2022-09-24T04:57:59.983Z,12.73
2022-09-24T05:00:27.497Z,12.33
2022-09-24T05:02:57.377Z,14.47
2022-09-24T05:05:26.527Z,11.27
2022-09-24T05:07:56.586Z,12.17
2022-09-24T05:10:24.810Z,13.97
2022-09-24T05:12:52.367Z,13.70
2022-09-24T05:15:20.169Z,11.60
2022-09-24T05:17:48.308Z,11.53
2022-09-24T05:20:16.769Z,12.77
2022-09-24T05:22:46.561Z,12.93
2022-09-24T05:25:15.421Z,11.67
2022-09-24T05:27:45.362Z,11.27
2022-09-24T05:30:13.567Z,14.73
2022-09-24T05:32:41.044Z,8.53
2022-09-24T05:35:09.357Z,7.17
2022-09-24T05:37:37.489Z,13.63
2022-09-24T05:40:21.632Z,7.77
2022-09-24T05:42:49.155Z,11.33
2022-09-24T05:45:17.981Z,11.57
2022-09-24T05:47:46.153Z,14.90
2022-09-24T05:50:13.841Z,15.47
2022-09-24T05:52:42.266Z,10.67
2022-09-24T05:55:11.989Z,11.50
2022-09-24T05:57:39.727Z,13.77
2022-09-24T06:00:08.549Z,12.13
2022-09-24T06:02:36.125Z,10.53
2022-09-24T06:05:03.785Z,14.27
2022-09-24T06:07:31.314Z,9.53
2022-09-24T06:09:59.179Z,11.87
2022-09-24T06:12:28.321Z,10.03
2022-09-24T06:14:55.791Z,10.70
2022-09-24T06:17:23.584Z,10.10
2022-09-24T06:19:51.991Z,9.93
2022-09-24T06:22:24.988Z,16.70
2022-09-24T06:24:55.198Z,14.50
2022-09-24T06:27:22.701Z,9.97
2022-09-24T06:29:51.533Z,14.07
2022-09-24T06:32:19.704Z,11.37
2022-09-24T06:34:47.422Z,11.63
2022-09-24T06:37:15.009Z,11.93
2022-09-24T06:39:42.551Z,11.70
2022-09-24T06:42:10.174Z,22.00
2022-09-24T06:44:37.870Z,28.70
2022-09-24T06:47:06.723Z,13.37
2022-09-24T06:49:34.580Z,16.03
2022-09-24T06:52:02.738Z,11.47
2022-09-24T06:54:30.201Z,9.93
2022-09-24T06:56:57.886Z,14.77
2022-09-24T06:59:25.339Z,31.63
2022-09-24T07:01:52.841Z,115.73
2022-09-24T07:04:21.927Z,23.80
2022-09-24T07:07:07.163Z,14.10
2022-09-24T07:09:36.204Z,14.60
2022-09-24T07:12:05.363Z,8.87
2022-09-24T07:14:32.841Z,9.63
2022-09-24T07:17:00.287Z,17.13
2022-09-24T07:19:29.100Z,10.70
2022-09-24T07:21:56.672Z,9.63
2022-09-24T07:24:24.328Z,12.60
2022-09-24T07:26:52.248Z,12.47
2022-09-24T07:29:19.805Z,13.37
2022-09-24T07:31:47.459Z,12.73
2022-09-24T07:34:15.056Z,14.30
2022-09-24T07:36:43.998Z,12.73
2022-09-24T07:39:11.521Z,15.03
2022-09-24T07:41:42.270Z,16.23
2022-09-24T07:44:10.217Z,15.10
2022-09-24T07:46:37.886Z,16.00
2022-09-24T07:49:05.726Z,12.57
2022-09-24T07:51:33.215Z,11.33
2022-09-24T07:54:02.234Z,14.37
2022-09-24T07:56:29.955Z,15.80
2022-09-24T07:58:57.631Z,18.47
2022-09-24T08:01:26.428Z,14.37
2022-09-24T08:03:54.530Z,19.20
2022-09-24T08:06:22.933Z,18.30
2022-09-24T08:08:50.541Z,20.77
2022-09-24T08:11:21.278Z,16.57
2022-09-24T08:13:49.119Z,18.10
2022-09-24T08:16:17.293Z,20.40
2022-09-24T08:18:45.144Z,19.33
2022-09-24T08:21:13.170Z,22.77
2022-09-24T08:23:40.918Z,20.27
2022-09-24T08:26:08.815Z,22.17
2022-09-24T08:28:37.970Z,28.17
2022-09-24T08:31:08.844Z,28.07
2022-09-24T08:33:37.367Z,22.10
2022-09-24T08:36:07.464Z,24.20
2022-09-24T08:38:35.009Z,22.00
2022-09-24T08:41:15.250Z,20.37
2022-09-24T08:43:53.453Z,23.27
2022-09-24T08:46:40.307Z,23.87
2022-09-24T08:49:09.120Z,20.20
2022-09-24T08:51:41.100Z,20.70
2022-09-24T08:54:10.720Z,20.90
2022-09-24T08:56:39.728Z,22.23
2022-09-24T08:59:16.081Z,27.47
2022-09-24T09:01:48.836Z,23.67
2022-09-24T09:04:26.131Z,23.20
2022-09-24T09:07:01.582Z,22.43
2022-09-24T09:09:39.642Z,25.73
2022-09-24T09:12:13.790Z,25.53
2022-09-24T09:14:47.730Z,25.67
2022-09-24T09:17:24.268Z,26.27
2022-09-24T09:19:57.168Z,22.83
2022-09-24T09:22:30.353Z,24.33
2022-09-24T09:25:04.297Z,21.27
2022-09-24T09:27:32.286Z,21.70
2022-09-24T09:30:07.180Z,24.03
2022-09-24T09:32:45.961Z,25.80
2022-09-24T09:35:20.185Z,28.23
2022-09-24T09:37:53.415Z,22.23
2022-09-24T09:40:32.187Z,22.80
2022-09-24T09:43:02.703Z,20.47
2022-09-24T09:45:35.374Z,29.60
2022-09-24T09:48:03.574Z,25.90
2022-09-24T09:50:35.790Z,19.50
2022-09-24T09:53:04.808Z,21.30
2022-09-24T09:55:34.302Z,18.87
2022-09-24T09:58:11.929Z,18.33
2022-09-24T10:00:41.311Z,18.13
2022-09-24T10:03:22.744Z,24.77
2022-09-24T10:05:55.130Z,23.53
2022-09-24T10:08:22.772Z,24.37
2022-09-24T10:10:56.093Z,19.30
2022-09-24T10:13:23.979Z,21.17
2022-09-24T10:15:54.591Z,21.87
2022-09-24T10:18:29.526Z,21.23
2022-09-24T10:20:58.063Z,24.40
2022-09-24T10:23:30.834Z,22.67
2022-09-24T10:26:00.970Z,20.90
2022-09-24T10:28:46.729Z,20.87
2022-09-24T10:31:19.266Z,25.10
2022-09-24T10:33:49.287Z,22.67
2022-09-24T10:36:20.246Z,21.67
2022-09-24T10:38:47.811Z,20.77
2022-09-24T10:41:17.122Z,24.07
2022-09-24T10:43:51.528Z,23.73
2022-09-24T10:46:33.456Z,24.13
2022-09-24T10:49:03.979Z,30.67
2022-09-24T10:51:37.694Z,24.87
2022-09-24T10:54:20.856Z,24.47
2022-09-24T10:56:51.646Z,23.90
2022-09-24T10:59:34.214Z,27.27
2022-09-24T11:02:21.605Z,22.03
2022-09-24T11:04:51.842Z,21.97
2022-09-24T11:07:34.552Z,24.13
2022-09-24T11:10:06.098Z,33.73
2022-09-24T11:12:37.749Z,18.77
2022-09-24T11:15:19.277Z,22.90
2022-09-24T11:18:01.390Z,24.47
2022-09-24T11:20:32.307Z,20.33
2022-09-24T11:23:13.859Z,20.73
2022-09-24T11:25:47.142Z,20.57
2022-09-24T11:28:46.602Z,22.87
2022-09-24T11:31:20.422Z,23.83
2022-09-24T11:34:04.869Z,22.43
2022-09-24T11:36:43.321Z,22.60
2022-09-24T11:39:24.656Z,18.13
2022-09-24T11:41:58.519Z,18.23
2022-09-24T11:44:47.299Z,24.83
2022-09-24T11:47:26.106Z,21.07
2022-09-24T11:50:12.039Z,33.73
2022-09-24T11:52:43.537Z,19.10
2022-09-24T11:55:16.401Z,17.83
2022-09-24T11:57:47.428Z,19.53
2022-09-24T12:00:17.601Z,19.23
2022-09-24T12:02:48.869Z,20.07
2022-09-24T12:05:22.345Z,25.53
2022-09-24T12:07:54.130Z,16.30
2022-09-24T12:10:32.817Z,17.43
2022-09-24T12:13:06.933Z,17.50
2022-09-24T12:15:42.143Z,19.27
2022-09-24T12:18:15.815Z,15.43
2022-09-24T12:20:48.541Z,18.27
2022-09-24T12:23:18.546Z,15.17
2022-09-24T12:25:47.886Z,17.07
2022-09-24T12:28:37.333Z,15.57
2022-09-24T12:31:25.451Z,16.17
2022-09-24T12:33:56.097Z,23.13
2022-09-24T12:36:30.915Z,19.90
2022-09-24T12:39:02.804Z,16.50
2022-09-24T12:41:31.815Z,15.40
2022-09-24T12:44:02.727Z,14.50
2022-09-24T12:46:34.229Z,16.77
2022-09-24T12:49:01.968Z,16.63
2022-09-24T12:51:38.263Z,16.20
2022-09-24T12:54:24.197Z,17.67
2022-09-24T12:56:51.730Z,17.00
2022-09-24T12:59:29.338Z,20.13
2022-09-24T13:02:08.335Z,17.27
2022-09-24T13:04:36.141Z,19.33
2022-09-24T13:07:29.339Z,16.10
2022-09-24T13:09:57.124Z,19.13
2022-09-24T13:12:33.039Z,20.40
2022-09-24T13:15:04.085Z,14.83
2022-09-24T13:17:34.024Z,19.27
2022-09-24T13:20:06.193Z,17.00
2022-09-24T13:22:37.472Z,19.47
2022-09-24T13:25:26.026Z,14.13
2022-09-24T13:27:58.991Z,14.23
2022-09-24T13:30:37.799Z,13.80
2022-09-24T13:33:14.694Z,11.97
2022-09-24T13:35:45.095Z,10.37
2022-09-24T13:38:21.362Z,14.47
2022-09-24T13:40:52.750Z,13.03
2022-09-24T13:43:38.341Z,11.30
2022-09-24T13:46:09.217Z,10.97
2022-09-24T13:48:38.182Z,10.20
2022-09-24T13:51:08.258Z,10.87
2022-09-24T13:53:39.079Z,11.83
2022-09-24T13:56:12.911Z,9.20
2022-09-24T13:58:41.573Z,10.20
2022-09-24T14:01:13.423Z,11.53
2022-09-24T14:03:41.809Z,8.97
2022-09-24T14:06:14.352Z,11.57
2022-09-24T14:08:44.413Z,13.77
2022-09-24T14:11:16.762Z,13.80
2022-09-24T14:13:45.742Z,11.30
2022-09-24T14:16:16.043Z,12.87
2022-09-24T14:18:43.800Z,12.00
2022-09-24T14:21:12.902Z,13.37
2022-09-24T14:23:45.338Z,30.27
2022-09-24T14:26:18.634Z,12.37
2022-09-24T14:28:46.494Z,18.63
2022-09-24T14:31:14.005Z,13.03
2022-09-24T14:33:41.846Z,17.30
2022-09-24T14:36:12.059Z,24.10
2022-09-24T14:38:53.376Z,15.40
2022-09-24T14:41:22.939Z,12.60
2022-09-24T14:43:52.721Z,12.67
2022-09-24T14:46:22.797Z,15.50
2022-09-24T14:48:51.094Z,16.53
2022-09-24T14:51:25.743Z,18.90
2022-09-24T14:54:01.962Z,18.03
2022-09-24T14:56:31.085Z,21.27
2022-09-24T14:58:58.870Z,16.77
2022-09-24T15:01:31.785Z,17.80
2022-09-24T15:04:01.022Z,15.10
2022-09-24T15:06:30.292Z,18.90
2022-09-24T15:09:01.407Z,14.90
2022-09-24T15:11:31.279Z,16.30
2022-09-24T15:14:00.320Z,14.70
2022-09-24T15:16:31.512Z,14.17
2022-09-24T15:19:11.027Z,17.13
2022-09-24T15:21:38.552Z,14.17
2022-09-24T15:24:07.752Z,18.63
2022-09-24T15:26:36.729Z,21.97
2022-09-24T15:29:05.180Z,26.67
2022-09-24T15:31:32.782Z,20.17
2022-09-24T15:34:00.278Z,19.10
2022-09-24T15:36:27.884Z,15.03
2022-09-24T15:39:00.521Z,15.37
2022-09-24T15:41:29.398Z,14.30
2022-09-24T15:43:58.154Z,16.10
2022-09-24T15:46:26.295Z,16.37
2022-09-24T15:48:53.874Z,17.73
2022-09-24T15:51:22.803Z,17.57
2022-09-24T15:53:51.006Z,16.10
2022-09-24T15:56:19.009Z,17.93
2022-09-24T15:58:47.849Z,19.20
2022-09-24T16:01:18.669Z,17.37
2022-09-24T16:03:46.178Z,19.40
2022-09-24T16:06:14.268Z,18.43
2022-09-24T16:08:43.062Z,16.47
2022-09-24T16:11:10.691Z,20.10
2022-09-24T16:13:38.396Z,15.07
2022-09-24T16:16:08.801Z,15.17
2022-09-24T16:18:38.050Z,18.47
2022-09-24T16:21:07.116Z,16.10
2022-09-24T16:23:34.927Z,23.30
2022-09-24T16:26:02.862Z,21.83
2022-09-24T16:28:30.773Z,22.40
2022-09-24T16:30:58.633Z,17.40
2022-09-24T16:33:27.713Z,21.13
2022-09-24T16:35:55.307Z,27.47
2022-09-24T16:38:23.448Z,16.67
2022-09-24T16:40:51.939Z,18.80
2022-09-24T16:43:19.629Z,21.13
2022-09-24T16:45:47.241Z,25.53
2022-09-24T16:48:14.842Z,20.07
2022-09-24T16:50:43.766Z,20.33
2022-09-24T16:53:11.308Z,20.67
2022-09-24T16:55:38.871Z,24.13
2022-09-24T16:58:06.388Z,28.47
2022-09-24T17:00:33.957Z,24.07
2022-09-24T17:03:01.554Z,27.43
2022-09-24T17:05:29.118Z,25.60
2022-09-24T17:07:58.048Z,17.23
2022-09-24T17:10:24.562Z,18.53
2022-09-24T17:12:52.632Z,20.83
2022-09-24T17:15:21.433Z,18.17
2022-09-24T17:17:50.808Z,18.37
2022-09-24T17:20:19.286Z,19.13
2022-09-24T17:22:47.970Z,19.83
2022-09-24T17:25:17.111Z,24.10
2022-09-24T17:27:44.873Z,18.30
2022-09-24T17:30:13.506Z,19.40
2022-09-24T17:32:40.991Z,24.33
2022-09-24T17:35:09.138Z,22.43
2022-09-24T17:37:36.889Z,25.20
2022-09-24T17:40:05.106Z,33.20
2022-09-24T17:42:34.674Z,30.73
2022-09-24T17:45:02.236Z,32.27
2022-09-24T17:47:49.883Z,36.10
2022-09-24T17:50:17.717Z,39.83
2022-09-24T17:52:45.262Z,41.43
2022-09-24T17:55:12.943Z,64.57
2022-09-24T17:57:41.929Z,38.43
2022-09-24T18:00:10.965Z,30.27
2022-09-24T18:02:38.547Z,29.67
2022-09-24T18:05:07.308Z,30.93
2022-09-24T18:07:34.819Z,26.90
2022-09-24T18:10:04.906Z,28.03
2022-09-24T18:12:32.455Z,25.67
2022-09-24T18:15:01.297Z,32.77
2022-09-24T18:17:28.761Z,25.63
2022-09-24T18:19:56.302Z,26.97
2022-09-24T18:22:24.209Z,25.47
2022-09-24T18:24:51.793Z,29.80
2022-09-24T18:27:19.338Z,27.30
2022-09-24T18:29:46.999Z,25.07
2022-09-24T18:32:15.926Z,29.83
2022-09-24T18:34:43.504Z,32.70
2022-09-24T18:37:11.217Z,25.33
2022-09-24T18:39:38.762Z,25.30
2022-09-24T18:42:06.429Z,23.70
2022-09-24T18:44:34.473Z,24.53
2022-09-24T18:47:02.077Z,18.27
2022-09-24T18:49:31.069Z,23.03
2022-09-24T18:51:58.698Z,20.20
2022-09-24T18:54:26.209Z,21.90
2022-09-24T18:56:53.666Z,18.13
2022-09-24T18:59:21.281Z,21.53
2022-09-24T19:01:50.503Z,18.50
2022-09-24T19:04:19.254Z,16.80
2022-09-24T19:06:49.697Z,21.77
2022-09-24T19:09:18.138Z,23.60
2022-09-24T19:11:46.464Z,19.50
2022-09-24T19:14:17.854Z,18.10
2022-09-24T19:16:45.733Z,20.43
2022-09-24T19:19:13.761Z,19.40
2022-09-24T19:21:42.078Z,18.37
2022-09-24T19:24:11.912Z,17.57
2022-09-24T19:26:39.484Z,21.47
2022-09-24T19:29:07.409Z,17.97
2022-09-24T19:31:37.448Z,17.77
2022-09-24T19:34:06.176Z,19.80
2022-09-24T19:36:43.063Z,17.30
2022-09-24T19:39:14.901Z,21.20
2022-09-24T19:41:42.790Z,17.60
2022-09-24T19:44:11.418Z,18.77
2022-09-24T19:46:39.402Z,16.43
2022-09-24T19:49:07.551Z,19.43
2022-09-24T19:51:36.212Z,20.10
2022-09-24T19:54:06.176Z,30.03
2022-09-24T19:56:35.427Z,29.63
2022-09-24T19:59:03.555Z,22.83
2022-09-24T20:01:32.924Z,25.77
2022-09-24T20:04:03.986Z,22.70
2022-09-24T20:06:33.840Z,20.10
2022-09-24T20:09:02.038Z,19.47
2022-09-24T20:11:32.281Z,18.63
2022-09-24T20:14:01.982Z,19.80
2022-09-24T20:16:32.833Z,20.70
2022-09-24T20:19:01.279Z,21.77
2022-09-24T20:21:33.708Z,21.93
2022-09-24T20:24:03.463Z,21.43
2022-09-24T20:26:49.111Z,23.87
2022-09-24T20:29:19.522Z,21.43
2022-09-24T20:31:51.105Z,21.53
2022-09-24T20:34:18.821Z,23.03
2022-09-24T20:36:46.344Z,19.47
2022-09-24T20:39:14.388Z,21.17
2022-09-24T20:41:43.098Z,21.60
2022-09-24T20:44:10.885Z,21.00
2022-09-24T20:46:40.239Z,20.27
2022-09-24T20:49:07.934Z,45.63
2022-09-24T20:51:35.674Z,41.60
2022-09-24T20:54:03.225Z,29.83
2022-09-24T20:56:31.438Z,28.37
2022-09-24T20:59:01.174Z,33.97
2022-09-24T21:01:28.876Z,31.30
2022-09-24T21:03:58.109Z,28.83
2022-09-24T21:06:25.797Z,48.07
2022-09-24T21:08:53.836Z,33.47
2022-09-24T21:11:23.896Z,28.83
2022-09-24T21:13:52.412Z,27.20
2022-09-24T21:16:22.705Z,34.00
2022-09-24T21:18:54.730Z,31.87
2022-09-24T21:21:25.978Z,35.73
2022-09-24T21:23:58.329Z,38.17
2022-09-24T21:26:27.578Z,38.57
2022-09-24T21:29:00.095Z,35.17
2022-09-24T21:31:32.602Z,27.87
2022-09-24T21:34:04.929Z,29.60
2022-09-24T21:36:44.291Z,30.77
2022-09-24T21:39:18.463Z,31.80
2022-09-24T21:41:51.702Z,34.93
2022-09-24T21:44:23.502Z,32.30
2022-09-24T21:46:54.810Z,36.03
2022-09-24T21:49:26.869Z,27.97
2022-09-24T21:51:59.720Z,30.97
2022-09-24T21:54:32.317Z,31.73
2022-09-24T21:57:02.192Z,27.07
2022-09-24T21:59:48.852Z,30.53
2022-09-24T22:02:21.919Z,31.00
2022-09-24T22:04:52.303Z,32.40
2022-09-24T22:07:25.311Z,24.67
2022-09-24T22:09:55.292Z,29.27
2022-09-24T22:12:24.735Z,31.73
2022-09-24T22:14:57.251Z,32.70
2022-09-24T22:17:29.489Z,30.80
2022-09-24T22:19:58.332Z,31.90
2022-09-24T22:22:29.983Z,33.87
2022-09-24T22:25:00.463Z,31.70
2022-09-24T22:27:29.139Z,32.47
2022-09-24T22:29:59.230Z,33.83
2022-09-24T22:32:30.726Z,35.03
2022-09-24T22:35:17.804Z,32.13
2022-09-24T22:37:53.383Z,32.40
2022-09-24T22:40:21.964Z,30.97
2022-09-24T22:42:51.349Z,31.60
2022-09-24T22:45:21.251Z,32.77
2022-09-24T22:47:49.409Z,37.37
2022-09-24T22:50:19.398Z,34.60
2022-09-24T22:52:50.510Z,31.13
2022-09-24T22:55:19.241Z,32.50
2022-09-24T22:57:48.674Z,34.13
2022-09-24T23:00:21.220Z,32.60
2022-09-24T23:02:51.382Z,46.83
2022-09-24T23:05:20.684Z,51.97
2022-09-24T23:07:51.718Z,72.20
2022-09-24T23:10:20.034Z,43.20
2022-09-24T23:12:49.756Z,34.90
2022-09-24T23:15:20.179Z,29.60
2022-09-24T23:17:49.024Z,31.07
2022-09-24T23:20:17.566Z,33.80
2022-09-24T23:22:50.480Z,29.20
2022-09-24T23:25:24.467Z,32.93
2022-09-24T23:27:52.145Z,31.03
2022-09-24T23:30:23.360Z,29.77
2022-09-24T23:32:52.351Z,30.83
2022-09-24T23:35:19.937Z,31.27
2022-09-24T23:37:49.788Z,35.57
2022-09-24T23:40:23.337Z,31.77
2022-09-24T23:42:56.145Z,31.30
2022-09-24T23:45:26.019Z,28.90
2022-09-24T23:47:55.650Z,27.53
2022-09-24T23:50:25.922Z,29.10
2022-09-24T23:52:54.021Z,26.20
2022-09-24T23:55:26.350Z,28.27
2022-09-24T23:57:57.964Z,30.57
